Time,TemperatureF,DewpointF,PressureIn,WindDirection,WindDirectionDegrees,WindSpeedMPH,WindSpeedGustMPH,Humidity,HourlyPrecipIn,Conditions,Clouds,dailyrainin,SoftwareType,DateUTC
2013-10-01 00:05:00,61.4,56.8,29.89,SW,218,2.0,4.0,85,0.00,,,0.00,Wunderground v.1.15,2013-10-01 05:05:00,
2013-10-01 00:20:00,61.4,57.5,29.89,SSW,200,3.0,3.0,87,0.00,,,0.00,Wunderground v.1.15,2013-10-01 05:20:00,
2013-10-01 00:25:00,61.4,57.5,29.89,SSW,208,2.0,4.0,87,0.00,,,0.00,Wunderground v.1.15,2013-10-01 05:25:00,
2013-10-01 00:35:00,61.3,57.7,29.89,SSE,165,3.0,4.0,88,0.00,,,0.00,Wunderground v.1.15,2013-10-01 05:35:00,
2013-10-01 00:40:00,61.1,57.5,29.89,SSW,204,2.0,2.0,88,0.00,,,0.00,Wunderground v.1.15,2013-10-01 05:40:00,
2013-10-01 00:50:00,60.8,57.5,29.89,SSE,148,2.0,4.0,89,0.00,,,0.00,Wunderground v.1.15,2013-10-01 05:50:00,
2013-10-01 00:55:00,60.7,57.4,29.89,SSE,167,2.0,5.0,89,0.00,,,0.00,Wunderground v.1.15,2013-10-01 05:55:00,
2013-10-01 01:00:00,60.7,57.4,29.89,SSE,161,2.0,2.0,89,0.00,,,0.00,Wunderground v.1.15,2013-10-01 06:00:00,
2013-10-01 01:10:00,60.5,57.6,29.89,SSW,200,1.0,8.0,90,0.00,,,0.00,Wunderground v.1.15,2013-10-01 06:10:00,
2013-10-01 01:20:00,60.4,57.8,29.90,South,191,2.0,2.0,91,0.00,,,0.00,Wunderground v.1.15,2013-10-01 06:20:00,
2013-10-01 01:30:00,60.3,58.0,29.90,SSW,205,1.0,8.0,92,0.00,,,0.00,Wunderground v.1.15,2013-10-01 06:30:00,
2013-10-01 01:40:00,60.3,58.3,29.90,SE,144,1.0,8.0,93,0.00,,,0.00,Wunderground v.1.15,2013-10-01 06:40:00,
2013-10-01 01:50:00,60.2,58.2,29.90,SSW,195,1.0,8.0,93,0.00,,,0.00,Wunderground v.1.15,2013-10-01 06:50:00,
2013-10-01 02:00:00,60.3,58.6,29.90,SSW,209,1.0,1.0,94,0.00,,,0.00,Wunderground v.1.15,2013-10-01 07:00:00,
2013-10-01 02:20:00,60.3,58.6,29.90,South,184,2.0,2.0,94,0.00,,,0.00,Wunderground v.1.15,2013-10-01 07:20:00,
2013-10-01 02:40:00,59.6,58.2,29.90,South,185,0.0,8.0,95,0.00,,,0.00,Wunderground v.1.15,2013-10-01 07:40:00,
2013-10-01 02:50:00,59.3,57.9,29.91,SW,224,0.0,8.0,95,0.00,,,0.00,Wunderground v.1.15,2013-10-01 07:50:00,
2013-10-01 03:05:00,58.8,57.7,29.91,SW,224,0.0,6.0,96,0.00,,,0.00,Wunderground v.1.15,2013-10-01 08:05:00,
2013-10-01 03:10:00,58.8,57.7,29.90,SSE,149,0.0,6.0,96,0.00,,,0.00,Wunderground v.1.15,2013-10-01 08:10:00,
2013-10-01 03:20:00,58.6,57.5,29.90,SW,222,0.0,6.0,96,0.00,,,0.00,Wunderground v.1.15,2013-10-01 08:20:00,
2013-10-01 03:25:00,58.6,57.8,29.91,SSW,198,0.0,6.0,97,0.00,,,0.00,Wunderground v.1.15,2013-10-01 08:25:00,
2013-10-01 03:35:00,58.5,57.4,29.91,SW,217,0.0,6.0,96,0.00,,,0.00,Wunderground v.1.15,2013-10-01 08:35:00,
2013-10-01 03:40:00,58.4,57.3,29.91,WNW,295,0.0,6.0,96,0.00,,,0.00,Wunderground v.1.15,2013-10-01 08:40:00,
2013-10-01 03:45:00,58.3,57.5,29.91,WNW,294,0.0,6.0,97,0.00,,,0.00,Wunderground v.1.15,2013-10-01 08:45:00,
2013-10-01 03:55:00,58.5,57.7,29.91,SW,214,0.0,6.0,97,0.00,,,0.00,Wunderground v.1.15,2013-10-01 08:55:00,
2013-10-01 04:00:00,58.4,57.6,29.91,SW,214,0.0,0.0,97,0.00,,,0.00,Wunderground v.1.15,2013-10-01 09:00:00,
2013-10-01 04:05:00,58.4,57.6,29.91,SSW,197,0.0,6.0,97,0.00,,,0.00,Wunderground v.1.15,2013-10-01 09:05:00,
2013-10-01 04:15:00,58.7,57.9,29.91,South,170,0.0,6.0,97,0.00,,,0.00,Wunderground v.1.15,2013-10-01 09:15:00,
2013-10-01 04:20:00,58.9,58.3,29.92,SSE,163,0.0,6.0,98,0.00,,,0.00,Wunderground v.1.15,2013-10-01 09:20:00,
2013-10-01 04:30:00,59.1,58.5,29.92,SSE,167,0.0,6.0,98,0.00,,,0.00,Wunderground v.1.15,2013-10-01 09:30:00,
2013-10-01 04:40:00,60.1,59.5,29.92,SSE,156,2.0,6.0,98,0.00,,,0.00,Wunderground v.1.15,2013-10-01 09:40:00,
2013-10-01 04:50:00,60.4,59.8,29.92,SSE,148,2.0,6.0,98,0.00,,,0.00,Wunderground v.1.15,2013-10-01 09:50:00,
2013-10-01 05:00:00,60.6,60.0,29.92,SSW,202,1.0,1.0,98,0.00,,,0.00,Wunderground v.1.15,2013-10-01 10:00:00,
2013-10-01 05:10:00,60.9,60.3,29.93,SSE,160,1.0,1.0,98,0.00,,,0.00,Wunderground v.1.15,2013-10-01 10:10:00,
2013-10-01 05:15:00,61.1,60.5,29.93,SSW,203,1.0,2.0,98,0.00,,,0.00,Wunderground v.1.15,2013-10-01 10:15:00,
2013-10-01 05:25:00,61.6,61.0,29.93,SSE,157,1.0,2.0,98,0.00,,,0.00,Wunderground v.1.15,2013-10-01 10:25:00,
2013-10-01 05:35:00,62.2,61.6,29.93,SSE,159,2.0,4.0,98,0.00,,,0.00,Wunderground v.1.15,2013-10-01 10:35:00,
2013-10-01 05:45:00,62.8,62.2,29.93,SE,130,2.0,4.0,98,0.00,,,0.00,Wunderground v.1.15,2013-10-01 10:45:00,
2013-10-01 05:50:00,63.0,62.4,29.93,SSE,161,2.0,2.0,98,0.00,,,0.00,Wunderground v.1.15,2013-10-01 10:50:00,
2013-10-01 06:00:00,63.3,62.4,29.93,SW,229,2.0,2.0,97,0.00,,,0.00,Wunderground v.1.15,2013-10-01 11:00:00,
2013-10-01 06:10:00,63.5,62.3,29.93,South,191,2.0,2.0,96,0.00,,,0.00,Wunderground v.1.15,2013-10-01 11:10:00,
2013-10-01 06:20:00,63.6,62.4,29.93,South,178,2.0,5.0,96,0.00,,,0.00,Wunderground v.1.15,2013-10-01 11:20:00,
2013-10-01 06:30:00,63.7,62.5,29.94,SW,224,2.0,5.0,96,0.00,,,0.00,Wunderground v.1.15,2013-10-01 11:30:00,
2013-10-01 06:35:00,63.7,62.5,29.94,SSE,155,2.0,5.0,96,0.00,,,0.00,Wunderground v.1.15,2013-10-01 11:35:00,
2013-10-01 06:45:00,63.8,62.3,29.94,SSE,156,2.0,5.0,95,0.00,,,0.00,Wunderground v.1.15,2013-10-01 11:45:00,
2013-10-01 06:55:00,63.9,62.4,29.94,SSE,155,2.0,5.0,95,0.00,,,0.00,Wunderground v.1.15,2013-10-01 11:55:00,
2013-10-01 07:00:00,63.9,62.4,29.94,SE,142,2.0,2.0,95,0.00,,,0.00,Wunderground v.1.15,2013-10-01 12:00:00,
2013-10-01 07:10:00,64.0,62.5,29.94,SW,231,1.0,1.0,95,0.00,,,0.00,Wunderground v.1.15,2013-10-01 12:10:00,
2013-10-01 07:20:00,64.1,62.6,29.94,SW,219,1.0,9.0,95,0.00,,,0.00,Wunderground v.1.15,2013-10-01 12:20:00,
2013-10-01 07:30:00,64.2,62.7,29.95,SE,130,2.0,2.0,95,0.00,,,0.00,Wunderground v.1.15,2013-10-01 12:30:00,
2013-10-01 07:40:00,64.4,62.6,29.94,SSE,160,3.0,3.0,94,0.00,,,0.00,Wunderground v.1.15,2013-10-01 12:40:00,
2013-10-01 07:45:00,64.4,62.6,29.94,SSE,153,2.0,9.0,94,0.00,,,0.00,Wunderground v.1.15,2013-10-01 12:45:00,
2013-10-01 07:55:00,64.6,62.8,29.95,South,181,2.0,3.0,94,0.00,,,0.00,Wunderground v.1.15,2013-10-01 12:55:00,
2013-10-01 08:00:00,64.7,62.9,29.95,SSW,207,2.0,5.0,94,0.00,,,0.00,Wunderground v.1.15,2013-10-01 13:00:00,
2013-10-01 08:05:00,64.8,63.0,29.95,South,185,3.0,7.0,94,0.00,,,0.00,Wunderground v.1.15,2013-10-01 13:05:00,
2013-10-01 08:15:00,65.0,62.9,29.95,SSW,202,2.0,7.0,93,0.00,,,0.00,Wunderground v.1.15,2013-10-01 13:15:00,
2013-10-01 08:25:00,65.3,62.9,29.96,SW,215,2.0,3.0,92,0.00,,,0.00,Wunderground v.1.15,2013-10-01 13:25:00,
2013-10-01 08:35:00,65.5,63.1,29.96,South,171,2.0,7.0,92,0.00,,,0.00,Wunderground v.1.15,2013-10-01 13:35:00,
2013-10-01 08:45:00,65.5,63.1,29.95,SSW,199,2.0,7.0,92,0.00,,,0.00,Wunderground v.1.15,2013-10-01 13:45:00,
2013-10-01 08:55:00,65.7,63.3,29.96,SW,214,2.0,7.0,92,0.00,,,0.00,Wunderground v.1.15,2013-10-01 13:55:00,
2013-10-01 09:00:00,65.8,63.4,29.95,SSE,152,2.0,2.0,92,0.00,,,0.00,Wunderground v.1.15,2013-10-01 14:00:00,
2013-10-01 09:15:00,66.0,63.3,29.95,SSE,167,3.0,10.0,91,0.00,,,0.00,Wunderground v.1.15,2013-10-01 14:15:00,
2013-10-01 09:20:00,66.0,63.3,29.95,SSE,164,3.0,3.0,91,0.00,,,0.00,Wunderground v.1.15,2013-10-01 14:20:00,
2013-10-01 09:25:00,66.0,63.3,29.95,SSE,147,3.0,5.0,91,0.00,,,0.00,Wunderground v.1.15,2013-10-01 14:25:00,
2013-10-01 09:35:00,66.2,63.5,29.96,West,275,3.0,3.0,91,0.00,,,0.00,Wunderground v.1.15,2013-10-01 14:35:00,
2013-10-01 09:40:00,66.2,63.5,29.96,SSE,155,3.0,3.0,91,0.00,,,0.00,Wunderground v.1.15,2013-10-01 14:40:00,
2013-10-01 09:50:00,66.3,63.6,29.96,SE,146,3.0,3.0,91,0.00,,,0.00,Wunderground v.1.15,2013-10-01 14:50:00,
2013-10-01 10:00:00,66.2,63.5,29.96,SW,218,3.0,4.0,91,0.00,,,0.00,Wunderground v.1.15,2013-10-01 15:00:00,
2013-10-01 10:10:00,66.3,63.6,29.96,East,100,2.0,10.0,91,0.00,,,0.00,Wunderground v.1.15,2013-10-01 15:10:00,
2013-10-01 10:20:00,66.4,63.7,29.96,SE,143,2.0,10.0,91,0.00,,,0.00,Wunderground v.1.15,2013-10-01 15:20:00,
2013-10-01 10:30:00,66.5,63.8,29.96,SE,134,3.0,3.0,91,0.00,,,0.00,Wunderground v.1.15,2013-10-01 15:30:00,
2013-10-01 10:40:00,66.6,63.9,29.96,SSE,155,3.0,3.0,91,0.00,,,0.00,Wunderground v.1.15,2013-10-01 15:40:00,
2013-10-01 10:45:00,66.7,64.0,29.96,SSE,157,3.0,10.0,91,0.00,,,0.00,Wunderground v.1.15,2013-10-01 15:45:00,
2013-10-01 10:55:00,67.2,63.8,29.95,South,180,2.0,10.0,89,0.00,,,0.00,Wunderground v.1.15,2013-10-01 15:55:00,
2013-10-01 11:05:00,67.7,64.3,29.95,SW,225,2.0,11.0,89,0.00,,,0.00,Wunderground v.1.15,2013-10-01 16:05:00,
2013-10-01 11:15:00,68.3,64.6,29.95,WSW,246,2.0,11.0,88,0.00,,,0.00,Wunderground v.1.15,2013-10-01 16:15:00,
2013-10-01 11:20:00,68.5,64.5,29.95,SE,146,2.0,2.0,87,0.00,,,0.00,Wunderground v.1.15,2013-10-01 16:20:00,
2013-10-01 11:30:00,68.8,64.8,29.95,SSW,213,3.0,3.0,87,0.00,,,0.00,Wunderground v.1.15,2013-10-01 16:30:00,
2013-10-01 11:35:00,69.0,65.0,29.95,SW,232,2.0,11.0,87,0.00,,,0.00,Wunderground v.1.15,2013-10-01 16:35:00,
2013-10-01 11:45:00,69.6,64.9,29.95,SSE,149,2.0,3.0,85,0.00,,,0.00,Wunderground v.1.15,2013-10-01 16:45:00,
2013-10-01 11:55:00,70.4,65.3,29.95,West,266,2.0,11.0,84,0.00,,,0.00,Wunderground v.1.15,2013-10-01 16:55:00,
2013-10-01 12:05:00,71.5,65.7,29.95,East,93,3.0,10.0,82,0.00,,,0.00,Wunderground v.1.15,2013-10-01 17:05:00,
2013-10-01 12:10:00,72.7,66.5,29.94,South,181,2.0,10.0,81,0.00,,,0.00,Wunderground v.1.15,2013-10-01 17:10:00,
2013-10-01 12:15:00,73.9,66.6,29.94,WSW,250,3.0,10.0,78,0.00,,,0.00,Wunderground v.1.15,2013-10-01 17:15:00,
2013-10-01 12:25:00,74.9,66.4,29.93,SW,229,2.0,10.0,75,0.00,,,0.00,Wunderground v.1.15,2013-10-01 17:25:00,
2013-10-01 12:30:00,75.2,65.6,29.93,ENE,68,2.0,10.0,72,0.00,,,0.00,Wunderground v.1.15,2013-10-01 17:30:00,